< Cyclone 202107 2021 Season Cyclone 202110 >
Cyclone 202108 (noname)
General InformationDetailed Track InformationTrack Information on Google Maps || ResourceGoogle EarthGE AnimationAtom FeedGeoJSON
Year Month Day Hour Lat. Long. Wind (kt) Gust (kt) Direc. of Major Storm Axis Radius of Major Storm Axis (nm) Radius of Minor Storm Axis (nm) Direc. of Major Gale Axis Radius of Major Gale Axis (nm) Radius of Minor Gale Axis (nm) Image
2021 1 18 00 -10.8 132.5 15 40 symmetric - - symmetric - - Image
2021 1 18 06 -10.6 131.3 15 40 symmetric - - symmetric - - Image
2021 1 18 12 -10.6 129.7 15 40 symmetric - - symmetric - - Image
2021 1 18 18 -10.7 128.6 15 40 symmetric - - symmetric - - Image
2021 1 19 00 -10.7 127.6 20 45 symmetric - - symmetric - - Image
2021 1 19 06 -10.7 126.5 20 45 symmetric - - symmetric - - Image
2021 1 19 12 -11.1 125.6 20 45 symmetric - - symmetric - - Image
2021 1 19 18 -11.7 124.8 25 45 symmetric - - symmetric - - Image
2021 1 20 00 -12.3 123.6 25 45 symmetric - - symmetric - - Image
2021 1 20 06 -12.8 122.8 25 45 symmetric - - symmetric - - Image
2021 1 20 12 -13.7 121.5 30 45 symmetric - - symmetric - - Image
2021 1 20 18 -14.5 120.7 30 45 symmetric - - symmetric - - Image
2021 1 21 00 -14.9 120.3 35 50 symmetric - - symmetric - - Image
2021 1 21 06 -15.7 119.9 35 50 symmetric - - symmetric - - Image
2021 1 21 12 -16.5 119.8 35 50 symmetric - - symmetric - - Image
2021 1 21 18 -17.4 119.8 35 50 symmetric - - symmetric - - Image
2021 1 22 00 -18.2 119.9 35 50 symmetric - - symmetric - - Image
2021 1 22 06 -19.4 120.5 30 45 symmetric - - symmetric - - Image
2021 1 22 12 -20.5 121.1 25 40 symmetric - - symmetric - - Image
2021 1 22 18 -21.4 122.1 20 35 symmetric - - symmetric - - Image
2021 1 23 00 -22.2 123.2 15 30 symmetric - - symmetric - - Image
2021 1 23 06 -23.1 124.0 15 30 symmetric - - symmetric - - Image
< Cyclone 202107 2021 Season Cyclone 202110 >

Help